Time;durP1;ratioP1;P1;durP2;ratioP2;P2;SDS_P1;SDS_P2;PMS_P1;PMS_P2;Temp;Humidity;BMP_temperature;BMP_pressure;BME280_temperature;BME280_humidity;BME280_pressure;Samples;Min_cycle;Max_cycle;Signal;HPM_P1;HPM_P2
2021/12/11 00:00:55;;;;;;;1.42;1.33;;;5.00;99.90;;;;;;6271875;22;20158;-51
2021/12/11 00:03:29;;;;;;;1.35;1.20;;;5.10;99.90;;;;;;6281297;22;20170;-51
2021/12/11 00:06:06;;;;;;;1.50;1.40;;;4.80;99.90;;;;;;6268040;22;20172;-50
2021/12/11 00:08:33;;;;;;;1.40;1.30;;;4.90;99.90;;;;;;6279975;22;20139;-51
2021/12/11 00:11:07;;;;;;;1.35;1.17;;;4.70;99.90;;;;;;6280210;22;20517;-50
2021/12/11 00:13:40;;;;;;;2.05;1.40;;;4.90;99.90;;;;;;6281829;22;20201;-51
2021/12/11 00:16:09;;;;;;;1.40;1.30;;;5.00;99.90;;;;;;6281882;22;20249;-50
2021/12/11 00:18:35;;;;;;;1.10;0.95;;;4.80;99.90;;;;;;6282687;22;20570;-51
2021/12/11 00:21:05;;;;;;;1.30;1.20;;;4.90;99.90;;;;;;6282728;22;20488;-51
2021/12/11 00:23:35;;;;;;;1.80;1.23;;;5.00;99.90;;;;;;6284229;22;20175;-51
2021/12/11 00:26:02;;;;;;;1.15;1.05;;;4.80;99.90;;;;;;6283345;22;20140;-51
2021/12/11 00:28:28;;;;;;;1.42;1.20;;;4.70;99.90;;;;;;6283391;22;20154;-51
2021/12/11 00:30:54;;;;;;;1.23;1.13;;;4.90;99.90;;;;;;6283011;22;20183;-51
2021/12/11 00:33:31;;;;;;;1.13;1.02;;;4.90;99.90;;;;;;6284841;22;20168;-51
2021/12/11 00:35:57;;;;;;;1.95;1.13;;;4.80;99.90;;;;;;6284602;22;20321;-51
2021/12/11 00:38:32;;;;;;;1.30;1.20;;;4.80;99.90;;;;;;6283181;22;20489;-50
2021/12/11 00:40:58;;;;;;;2.92;1.20;;;4.90;99.90;;;;;;6274327;22;20185;-51
2021/12/11 00:43:28;;;;;;;2.45;1.60;;;4.90;99.90;;;;;;6273592;22;20196;-51
2021/12/11 00:45:56;;;;;;;1.50;1.10;;;4.70;99.90;;;;;;6284785;22;20155;-51
2021/12/11 00:48:25;;;;;;;2.47;1.23;;;4.70;99.90;;;;;;6273586;22;20163;-51
2021/12/11 00:50:59;;;;;;;1.75;1.65;;;5.00;99.90;;;;;;6273414;22;20181;-51
2021/12/11 00:53:29;;;;;;;1.42;1.20;;;4.90;99.90;;;;;;6284559;22;20222;-50
2021/12/11 00:56:06;;;;;;;1.77;1.27;;;4.40;99.90;;;;;;6284236;22;20626;-52
2021/12/11 00:58:35;;;;;;;1.30;1.20;;;4.80;99.90;;;;;;6284749;22;20165;-50
2021/12/11 01:01:06;;;;;;;1.40;1.30;;;4.90;99.90;;;;;;6274787;22;20156;-50
2021/12/11 01:03:36;;;;;;;1.83;1.23;;;5.10;99.90;;;;;;6274208;22;20441;-50
2021/12/11 01:06:09;;;;;;;3.47;1.27;;;5.00;99.90;;;;;;6284794;22;20157;-50
2021/12/11 01:08:39;;;;;;;1.40;1.30;;;4.70;99.90;;;;;;6273018;22;20412;-51
2021/12/11 01:11:17;;;;;;;1.50;1.40;;;5.40;99.90;;;;;;6272684;22;20193;-51
2021/12/11 01:13:54;;;;;;;1.55;1.40;;;5.50;99.90;;;;;;6284266;22;20195;-50
2021/12/11 01:16:21;;;;;;;1.42;1.27;;;5.50;99.90;;;;;;6285776;22;20497;-51
2021/12/11 01:18:55;;;;;;;1.40;1.30;;;5.60;99.90;;;;;;6273715;22;20250;-51
2021/12/11 01:24:10;;;;;;;1.60;1.50;;;5.00;99.90;;;;;;6285006;22;20181;-50
2021/12/11 01:26:43;;;;;;;1.38;1.27;;;5.10;99.90;;;;;;6274467;22;20572;-51
2021/12/11 01:29:11;;;;;;;1.30;1.20;;;4.80;99.90;;;;;;6270075;22;20158;-51
2021/12/11 01:31:37;;;;;;;1.60;1.50;;;5.10;99.90;;;;;;6273111;22;20185;-51
2021/12/11 01:34:04;;;;;;;1.33;1.23;;;4.90;99.90;;;;;;6273629;22;20321;-51
2021/12/11 01:36:30;;;;;;;1.42;1.27;;;4.80;99.90;;;;;;6284093;22;20609;-51
2021/12/11 01:39:01;;;;;;;1.58;1.48;;;4.90;99.90;;;;;;6272524;22;20164;-51
2021/12/11 01:41:27;;;;;;;1.42;1.33;;;4.90;99.90;;;;;;6284105;22;20158;-51
2021/12/11 01:43:57;;;;;;;1.15;1.05;;;4.90;99.90;;;;;;6284301;22;20482;-51
2021/12/11 01:46:27;;;;;;;1.50;1.40;;;4.90;99.90;;;;;;6273763;22;20161;-50
2021/12/11 01:48:58;;;;;;;1.30;1.20;;;4.90;99.90;;;;;;6283432;22;20273;-50
2021/12/11 01:51:27;;;;;;;2.08;1.55;;;4.80;99.90;;;;;;6283645;22;20175;-51
2021/12/11 01:53:59;;;;;;;1.58;1.45;;;4.90;99.90;;;;;;6273760;22;20518;-50
2021/12/11 01:56:27;;;;;;;1.48;1.38;;;4.60;99.90;;;;;;6273397;22;20183;-51
2021/12/11 01:59:02;;;;;;;1.67;1.20;;;4.40;99.90;;;;;;6283812;22;20464;-51
2021/12/11 02:01:36;;;;;;;1.63;1.45;;;4.60;99.90;;;;;;6273577;22;20166;-51
2021/12/11 02:04:04;;;;;;;1.27;1.17;;;4.60;99.90;;;;;;6273986;22;20515;-51
2021/12/11 02:06:38;;;;;;;1.45;1.30;;;4.60;99.90;;;;;;6273387;22;20505;-51
2021/12/11 02:09:12;;;;;;;1.38;1.27;;;4.60;99.90;;;;;;6282504;22;20184;-50
2021/12/11 02:11:38;;;;;;;1.17;1.08;;;4.50;99.90;;;;;;6282353;22;20149;-51
2021/12/11 02:14:06;;;;;;;1.40;1.30;;;4.70;99.90;;;;;;6284036;22;20181;-51
2021/12/11 02:16:45;;;;;;;1.25;1.10;;;4.50;99.90;;;;;;6271242;22;20196;-50
2021/12/11 02:19:33;;;;;;;1.73;1.20;;;4.40;99.90;;;;;;6272910;22;20155;-50
2021/12/11 02:22:01;;;;;;;1.10;1.00;;;4.40;99.90;;;;;;6283530;22;20439;-51
2021/12/11 02:24:49;;;;;;;1.83;0.90;;;4.50;99.90;;;;;;6281164;22;20170;-51
2021/12/11 02:27:21;;;;;;;1.45;1.00;;;4.70;99.90;;;;;;6272838;22;20149;-51
2021/12/11 02:29:53;;;;;;;0.82;0.82;;;5.10;99.90;;;;;;6283513;22;20525;-51
2021/12/11 02:32:56;;;;;;;0.80;0.80;;;4.60;99.90;;;;;;6283414;22;20680;-50
2021/12/11 02:35:36;;;;;;;1.20;1.10;;;4.60;99.90;;;;;;6263179;22;20881;-51
2021/12/11 02:38:45;;;;;;;0.77;0.77;;;4.60;99.90;;;;;;6283217;22;20133;-51
2021/12/11 02:41:21;;;;;;;0.80;0.80;;;4.30;99.90;;;;;;6217916;22;20156;-52
2021/12/11 02:44:01;;;;;;;0.90;0.90;;;3.80;99.90;;;;;;6283193;22;20195;-51
2021/12/11 02:46:33;;;;;;;0.75;0.68;;;4.20;99.90;;;;;;6273462;22;20482;-51
2021/12/11 02:49:14;;;;;;;1.00;0.80;;;4.10;99.90;;;;;;6272626;22;20158;-51
2021/12/11 02:51:46;;;;;;;0.80;0.80;;;4.30;99.90;;;;;;6269252;22;20613;-51
2021/12/11 02:54:15;;;;;;;0.70;0.70;;;4.20;99.90;;;;;;6283452;22;20177;-50
2021/12/11 02:56:46;;;;;;;1.30;1.20;;;4.00;99.90;;;;;;6283273;22;20545;-51
2021/12/11 02:59:16;;;;;;;1.40;1.30;;;4.00;99.90;;;;;;6283921;22;20137;-51
2021/12/11 03:02:02;;;;;;;0.88;0.80;;;3.20;99.90;;;;;;6280552;22;20149;-51
2021/12/11 03:04:36;;;;;;;0.77;0.77;;;3.90;99.90;;;;;;6272776;22;20260;-51
2021/12/11 03:07:07;;;;;;;2.35;0.85;;;3.70;99.90;;;;;;6272762;22;20629;-51
2021/12/11 03:09:38;;;;;;;1.15;0.80;;;4.10;99.90;;;;;;6282285;22;20175;-51
2021/12/11 03:12:07;;;;;;;1.02;0.70;;;3.30;99.90;;;;;;6272537;22;20242;-51
2021/12/11 03:14:33;;;;;;;0.70;0.68;;;3.80;99.90;;;;;;6283205;22;20247;-51
2021/12/11 03:17:00;;;;;;;0.93;0.93;;;4.00;99.90;;;;;;6272368;22;20246;-51
2021/12/11 03:19:29;;;;;;;0.82;0.80;;;4.00;99.90;;;;;;6282933;22;20600;-50
2021/12/11 03:21:59;;;;;;;0.80;0.80;;;3.90;99.90;;;;;;6283387;22;20603;-50
2021/12/11 03:24:27;;;;;;;1.10;1.00;;;3.80;99.90;;;;;;6283520;22;20239;-51
2021/12/11 03:26:54;;;;;;;1.30;1.20;;;3.90;99.90;;;;;;6282713;22;20149;-50
2021/12/11 03:29:20;;;;;;;1.65;1.55;;;3.50;99.90;;;;;;6283233;22;20152;-51
2021/12/11 03:31:47;;;;;;;1.20;1.10;;;3.80;99.90;;;;;;6282441;22;20149;-51
2021/12/11 03:34:19;;;;;;;1.10;1.00;;;3.90;99.90;;;;;;6283380;22;20623;-51
2021/12/11 03:36:46;;;;;;;1.52;1.42;;;4.00;99.90;;;;;;6273085;22;20247;-51
2021/12/11 03:39:17;;;;;;;1.73;1.63;;;4.00;99.90;;;;;;6273035;22;20156;-51
2021/12/11 03:41:45;;;;;;;1.60;1.50;;;3.90;99.90;;;;;;6282800;22;20160;-50
2021/12/11 03:44:11;;;;;;;1.63;1.52;;;4.40;99.90;;;;;;6270091;22;20181;-50
2021/12/11 03:46:38;;;;;;;2.10;2.00;;;4.10;99.90;;;;;;6273026;22;20171;-51
2021/12/11 03:49:10;;;;;;;1.92;1.83;;;4.30;99.90;;;;;;6271873;22;20192;-51
2021/12/11 03:51:41;;;;;;;2.10;2.00;;;4.10;99.90;;;;;;6271895;22;20180;-50
2021/12/11 03:54:11;;;;;;;2.20;2.10;;;4.20;99.90;;;;;;6283318;22;20168;-50
2021/12/11 03:56:38;;;;;;;2.85;2.65;;;4.30;99.90;;;;;;6284182;22;20631;-51
2021/12/11 03:59:09;;;;;;;2.35;2.25;;;4.10;99.90;;;;;;6274632;22;20505;-51
2021/12/11 04:01:43;;;;;;;2.67;2.45;;;4.10;99.90;;;;;;6284981;22;20698;-51
2021/12/11 04:04:37;;;;;;;2.50;2.40;;;4.20;99.90;;;;;;6274824;22;20176;-50
2021/12/11 04:07:07;;;;;;;3.17;2.97;;;4.00;99.90;;;;;;6270670;22;20162;-51
2021/12/11 04:09:33;;;;;;;3.15;2.90;;;3.90;99.90;;;;;;6273898;22;20171;-51
2021/12/11 04:11:59;;;;;;;2.95;2.75;;;4.10;99.90;;;;;;6274267;22;20191;-51
2021/12/11 04:14:29;;;;;;;2.90;2.70;;;4.20;99.90;;;;;;6274294;22;20690;-51
2021/12/11 04:16:58;;;;;;;3.28;2.83;;;4.30;99.90;;;;;;6285090;22;20183;-51
2021/12/11 04:19:24;;;;;;;3.25;3.05;;;4.10;99.90;;;;;;6284314;22;20179;-51
2021/12/11 04:21:50;;;;;;;3.60;3.03;;;4.20;99.90;;;;;;6274946;22;20536;-51
2021/12/11 04:24:19;;;;;;;3.05;2.85;;;4.10;99.90;;;;;;6274922;22;20250;-51
2021/12/11 04:26:46;;;;;;;3.08;2.78;;;4.20;99.90;;;;;;6274182;22;20169;-51
2021/12/11 04:29:12;;;;;;;2.97;2.78;;;4.20;99.90;;;;;;6274147;22;20237;-51
2021/12/11 04:31:42;;;;;;;3.55;2.95;;;4.30;99.90;;;;;;6285140;22;20156;-51
2021/12/11 04:34:09;;;;;;;2.95;2.70;;;3.70;99.90;;;;;;6274975;22;20173;-51
2021/12/11 04:36:42;;;;;;;3.03;2.80;;;4.20;99.90;;;;;;6284616;22;20173;-51
2021/12/11 04:39:10;;;;;;;3.47;3.25;;;3.90;99.90;;;;;;6284262;22;20567;-51
2021/12/11 04:41:48;;;;;;;3.63;3.42;;;4.20;99.90;;;;;;6284456;22;20149;-51
2021/12/11 04:44:21;;;;;;;3.55;3.35;;;3.60;99.90;;;;;;6275013;22;20558;-51
2021/12/11 04:46:47;;;;;;;3.63;3.33;;;4.10;99.90;;;;;;6274388;22;20164;-51
2021/12/11 04:49:27;;;;;;;3.80;3.50;;;4.30;99.90;;;;;;6284827;22;20387;-51
2021/12/11 04:52:15;;;;;;;3.20;3.00;;;4.00;99.90;;;;;;6284169;22;20418;-51
2021/12/11 04:55:02;;;;;;;3.70;3.50;;;4.00;99.90;;;;;;6275147;22;20174;-51
2021/12/11 05:00:52;;;;;;;3.90;3.70;;;4.20;99.90;;;;;;6274871;22;20224;-51
2021/12/11 05:13:16;;;;;;;3.80;3.60;;;4.40;99.90;;;;;;6284692;22;20184;-51
2021/12/11 05:15:45;;;;;;;4.38;3.95;;;4.30;99.90;;;;;;6274543;22;20180;-51
2021/12/11 05:18:15;;;;;;;4.47;4.07;;;4.10;99.90;;;;;;6273440;22;20501;-51
2021/12/11 05:20:45;;;;;;;4.25;3.95;;;4.30;99.90;;;;;;6274091;22;20481;-51
2021/12/11 05:23:12;;;;;;;4.60;4.20;;;4.40;99.90;;;;;;6273973;22;20178;-51
2021/12/11 05:25:37;;;;;;;4.55;4.22;;;4.70;99.90;;;;;;6284586;22;20676;-51
2021/12/11 05:28:04;;;;;;;4.97;4.57;;;4.40;99.90;;;;;;6284003;22;20156;-51
2021/12/11 05:30:35;;;;;;;4.85;4.45;;;4.40;99.90;;;;;;6273788;22;20700;-51
2021/12/11 05:33:02;;;;;;;5.30;4.80;;;3.90;99.90;;;;;;6284113;22;20182;-51
2021/12/11 05:35:30;;;;;;;4.35;4.05;;;4.50;99.90;;;;;;6273700;22;20187;-51
2021/12/11 05:37:57;;;;;;;4.70;4.30;;;4.60;99.90;;;;;;6284427;22;20152;-50
2021/12/11 05:40:26;;;;;;;4.35;4.05;;;4.20;99.90;;;;;;6273904;22;20505;-51
2021/12/11 05:42:52;;;;;;;4.38;4.07;;;4.30;99.90;;;;;;6273910;22;20515;-51
2021/12/11 05:45:19;;;;;;;4.90;4.50;;;4.60;99.90;;;;;;6284260;22;20156;-51
2021/12/11 05:47:45;;;;;;;5.10;4.70;;;4.20;99.90;;;;;;6284242;22;20160;-51
2021/12/11 05:50:19;;;;;;;5.32;4.82;;;4.50;99.90;;;;;;6273240;22;20498;-51
2021/12/11 05:52:47;;;;;;;5.28;4.88;;;4.00;99.90;;;;;;6283044;22;20207;-51
2021/12/11 05:55:16;;;;;;;4.90;4.47;;;4.30;99.90;;;;;;6273761;22;20182;-51
2021/12/11 05:57:49;;;;;;;5.30;4.80;;;4.40;99.90;;;;;;6284203;22;20146;-51
2021/12/11 06:00:17;;;;;;;5.70;5.20;;;4.10;99.90;;;;;;6273832;22;20179;-51
2021/12/11 06:02:43;;;;;;;5.05;4.65;;;4.10;99.90;;;;;;6283668;22;20588;-50
2021/12/11 06:05:09;;;;;;;5.90;5.30;;;4.20;99.90;;;;;;6272659;22;20617;-51
2021/12/11 06:07:35;;;;;;;5.87;5.40;;;4.20;99.90;;;;;;6273272;22;20172;-51
2021/12/11 06:10:13;;;;;;;5.75;5.20;;;4.00;99.90;;;;;;6273350;22;20226;-51
2021/12/11 06:12:39;;;;;;;5.40;4.90;;;4.40;99.90;;;;;;6273804;22;20176;-51
2021/12/11 06:15:08;;;;;;;4.85;4.45;;;4.10;99.90;;;;;;6283787;22;20173;-51
2021/12/11 06:17:34;;;;;;;5.20;4.70;;;4.30;99.90;;;;;;6272926;22;20596;-51
2021/12/11 06:20:05;;;;;;;5.10;4.70;;;4.00;99.90;;;;;;6272408;22;20185;-51
2021/12/11 06:22:34;;;;;;;4.97;4.57;;;4.30;99.90;;;;;;6282307;22;20180;-51
2021/12/11 06:25:04;;;;;;;4.50;4.10;;;4.10;99.90;;;;;;6283429;22;20179;-51
2021/12/11 06:27:30;;;;;;;5.60;4.70;;;4.00;99.90;;;;;;6283874;22;20208;-50
2021/12/11 06:29:56;;;;;;;5.13;4.63;;;4.40;99.90;;;;;;6273279;22;20579;-51
2021/12/11 06:32:23;;;;;;;5.40;5.00;;;4.20;99.90;;;;;;6270507;22;20219;-51
2021/12/11 06:34:51;;;;;;;5.65;5.15;;;4.20;99.90;;;;;;6272807;22;20176;-51
2021/12/11 06:37:20;;;;;;;6.05;5.55;;;4.20;99.90;;;;;;6282892;22;20153;-51
2021/12/11 06:39:46;;;;;;;7.22;6.63;;;4.30;99.90;;;;;;6271649;22;20287;-51
2021/12/11 06:42:12;;;;;;;5.72;5.30;;;4.30;99.90;;;;;;6273353;22;20179;-51
2021/12/11 06:44:38;;;;;;;6.63;6.03;;;4.50;99.90;;;;;;6283429;22;20164;-51
2021/12/11 06:47:09;;;;;;;7.68;6.45;;;4.30;99.90;;;;;;6282954;22;20156;-50
2021/12/11 06:49:37;;;;;;;6.43;5.90;;;4.30;99.90;;;;;;6272582;22;20539;-51
2021/12/11 06:52:12;;;;;;;7.40;6.70;;;4.40;99.90;;;;;;6271703;22;20655;-51
2021/12/11 06:54:37;;;;;;;6.70;6.10;;;4.50;99.90;;;;;;6273231;22;20198;-51
2021/12/11 06:57:04;;;;;;;7.87;6.57;;;4.50;99.90;;;;;;6272982;22;20600;-50
2021/12/11 06:59:30;;;;;;;7.15;6.45;;;4.00;99.90;;;;;;6272953;22;20159;-51
2021/12/11 07:01:56;;;;;;;6.03;5.53;;;4.50;99.90;;;;;;6283279;22;20150;-51
2021/12/11 07:04:22;;;;;;;7.70;6.90;;;4.30;99.90;;;;;;6282752;22;20474;-51
2021/12/11 07:06:52;;;;;;;7.60;6.90;;;4.30;99.90;;;;;;6283510;22;20622;-51
2021/12/11 07:09:20;;;;;;;9.27;8.52;;;4.10;99.90;;;;;;6283097;22;20681;-51
2021/12/11 07:11:47;;;;;;;7.50;6.90;;;4.40;99.90;;;;;;6283263;22;20158;-51
2021/12/11 07:14:16;;;;;;;8.35;7.65;;;4.60;99.90;;;;;;6281828;22;20277;-51
2021/12/11 07:16:43;;;;;;;7.63;6.93;;;4.30;99.90;;;;;;6271612;22;20266;-51
2021/12/11 07:19:09;;;;;;;7.93;7.22;;;4.60;99.90;;;;;;6283308;22;20145;-52
2021/12/11 07:21:36;;;;;;;6.60;6.00;;;4.40;99.90;;;;;;6283768;22;20157;-49
2021/12/11 07:24:05;;;;;;;7.80;7.03;;;4.50;99.90;;;;;;6283023;22;20600;-50
2021/12/11 07:26:33;;;;;;;7.70;7.00;;;4.70;99.90;;;;;;6273177;22;20165;-50
2021/12/11 07:29:13;;;;;;;7.25;6.53;;;4.60;99.90;;;;;;6272483;22;20230;-50
2021/12/11 07:31:41;;;;;;;7.30;6.57;;;4.70;99.90;;;;;;6283002;22;20524;-50
2021/12/11 07:34:08;;;;;;;8.18;6.95;;;4.70;99.90;;;;;;6283028;22;20173;-51
2021/12/11 07:36:34;;;;;;;9.55;7.40;;;4.50;99.90;;;;;;6273053;22;20202;-50
2021/12/11 07:39:07;;;;;;;8.73;7.88;;;5.00;99.90;;;;;;6282960;22;20632;-51
2021/12/11 07:41:33;;;;;;;7.35;6.65;;;4.70;99.90;;;;;;6283295;22;20559;-51
2021/12/11 07:44:00;;;;;;;7.80;7.00;;;4.50;99.90;;;;;;6273109;22;20172;-51
2021/12/11 07:46:28;;;;;;;7.75;7.07;;;4.70;99.90;;;;;;6282248;22;20391;-51
2021/12/11 07:48:56;;;;;;;7.88;7.18;;;5.20;99.90;;;;;;6272942;22;20627;-51
2021/12/11 07:51:23;;;;;;;8.38;7.68;;;4.70;99.90;;;;;;6283411;22;20412;-51
2021/12/11 07:53:50;;;;;;;10.55;9.35;;;4.60;99.90;;;;;;6273113;22;20178;-51
2021/12/11 07:56:20;;;;;;;9.13;8.32;;;4.70;99.90;;;;;;6272388;22;20201;-51
2021/12/11 07:58:47;;;;;;;7.75;7.05;;;4.70;99.90;;;;;;6280673;22;20156;-51
2021/12/11 08:01:13;;;;;;;9.00;8.13;;;4.80;99.90;;;;;;6283427;22;20522;-52
2021/12/11 08:03:40;;;;;;;8.13;7.40;;;4.10;99.90;;;;;;6272758;22;20181;-51
2021/12/11 08:06:07;;;;;;;9.57;8.25;;;4.60;99.90;;;;;;6272407;22;20396;-51
2021/12/11 08:08:34;;;;;;;9.60;8.60;;;4.70;99.90;;;;;;6282713;22;20537;-50
2021/12/11 08:11:03;;;;;;;10.18;9.18;;;4.90;99.90;;;;;;6271819;22;20652;-51
2021/12/11 08:13:29;;;;;;;9.20;8.30;;;4.70;99.90;;;;;;6272317;22;20181;-50
2021/12/11 08:15:57;;;;;;;9.07;8.17;;;4.80;99.90;;;;;;6282911;22;20212;-50
2021/12/11 08:18:25;;;;;;;10.25;9.13;;;4.80;99.90;;;;;;6283327;22;20457;-50
2021/12/11 08:20:52;;;;;;;10.60;8.65;;;4.50;99.90;;;;;;6282742;22;20660;-50
2021/12/11 08:23:18;;;;;;;9.88;8.88;;;4.90;99.90;;;;;;6282952;22;20177;-52
2021/12/11 08:25:45;;;;;;;11.10;9.13;;;4.90;99.90;;;;;;6271902;22;20477;-51
2021/12/11 08:28:14;;;;;;;11.95;8.23;;;4.90;99.90;;;;;;6282492;22;20210;-52
2021/12/11 08:30:43;;;;;;;10.57;9.48;;;4.20;99.90;;;;;;6272086;22;20183;-51
2021/12/11 08:33:09;;;;;;;10.32;9.32;;;4.70;99.90;;;;;;6272568;22;20232;-50
2021/12/11 08:35:36;;;;;;;10.67;9.57;;;4.20;99.90;;;;;;6282598;22;20174;-49
2021/12/11 08:38:05;;;;;;;11.93;10.82;;;4.90;99.90;;;;;;6272204;22;20459;-50
2021/12/11 08:40:34;;;;;;;10.90;9.85;;;4.70;99.90;;;;;;6282098;22;20150;-51
2021/12/11 08:43:02;;;;;;;11.50;9.43;;;4.70;99.90;;;;;;6273492;22;20514;-51
2021/12/11 08:45:44;;;;;;;12.13;10.02;;;4.60;99.90;;;;;;6281841;22;20157;-52
2021/12/11 08:48:14;;;;;;;12.30;11.10;;;4.30;99.90;;;;;;6283976;22;20133;-52
2021/12/11 08:50:42;;;;;;;11.32;9.90;;;4.90;99.90;;;;;;6273746;22;20218;-52
2021/12/11 08:53:07;;;;;;;11.23;10.02;;;4.70;99.90;;;;;;6284432;22;20172;-51
2021/12/11 08:55:38;;;;;;;11.43;10.23;;;4.70;99.90;;;;;;6272568;22;20232;-51
2021/12/11 08:58:06;;;;;;;11.73;9.70;;;4.80;99.90;;;;;;6283853;22;20412;-52
2021/12/11 09:00:47;;;;;;;11.82;10.38;;;4.60;99.90;;;;;;6283931;22;20176;-53
2021/12/11 09:03:24;;;;;;;10.98;9.85;;;4.60;99.90;;;;;;6284303;22;20168;-52
2021/12/11 09:05:55;;;;;;;11.68;10.52;;;4.90;99.90;;;;;;6274224;22;20217;-53
2021/12/11 09:08:29;;;;;;;12.75;10.43;;;4.80;99.90;;;;;;6272441;22;20162;-51
2021/12/11 09:11:00;;;;;;;11.70;10.48;;;4.40;99.90;;;;;;6284809;22;20141;-51
2021/12/11 09:13:50;;;;;;;12.57;10.05;;;4.70;99.90;;;;;;6285412;22;20184;-52
2021/12/11 09:16:22;;;;;;;10.65;8.60;;;4.80;99.90;;;;;;6284766;22;20174;-52
2021/12/11 09:18:56;;;;;;;12.13;9.07;;;4.80;99.90;;;;;;6284563;22;20131;-51
2021/12/11 09:21:39;;;;;;;19.30;14.55;;;4.90;99.90;;;;;;6274088;22;20229;-51
2021/12/11 09:24:08;;;;;;;13.70;10.32;;;4.70;99.90;;;;;;6272535;22;20187;-51
2021/12/11 09:26:57;;;;;;;12.02;10.63;;;4.90;99.90;;;;;;6284348;22;20155;-50
2021/12/11 09:29:30;;;;;;;9.80;8.80;;;5.00;99.90;;;;;;6272443;22;20488;-51
2021/12/11 09:32:15;;;;;;;10.25;9.15;;;5.10;99.90;;;;;;6273606;22;20241;-51
2021/12/11 09:34:46;;;;;;;11.35;9.50;;;5.30;99.90;;;;;;6273980;22;20181;-51
2021/12/11 09:37:13;;;;;;;9.38;8.45;;;5.40;99.90;;;;;;6283733;22;20146;-51
2021/12/11 09:39:47;;;;;;;9.45;8.50;;;4.60;99.90;;;;;;6283611;22;20162;-50
2021/12/11 09:42:12;;;;;;;10.10;8.27;;;5.30;99.90;;;;;;6273309;22;20640;-52
2021/12/11 09:44:50;;;;;;;8.17;7.40;;;5.40;99.90;;;;;;6284331;22;20234;-50
2021/12/11 09:47:24;;;;;;;8.70;7.80;;;5.50;99.90;;;;;;6282523;22;20138;-49
2021/12/11 09:49:58;;;;;;;9.35;8.43;;;5.50;99.90;;;;;;6283555;22;20142;-50
2021/12/11 09:52:26;;;;;;;8.95;7.93;;;5.40;99.90;;;;;;6283191;22;20625;-50
2021/12/11 09:54:55;;;;;;;9.60;8.60;;;5.00;99.90;;;;;;6283274;22;20177;-50
2021/12/11 09:57:23;;;;;;;9.13;7.85;;;5.00;99.90;;;;;;6272761;22;20154;-50
2021/12/11 09:59:51;;;;;;;8.80;7.90;;;5.80;99.90;;;;;;6272843;22;20158;-50
2021/12/11 10:02:21;;;;;;;8.20;7.40;;;5.30;99.90;;;;;;6273337;22;20155;-51
2021/12/11 10:04:58;;;;;;;8.10;7.30;;;6.10;99.90;;;;;;6273378;22;20144;-50
2021/12/11 10:07:37;;;;;;;7.50;6.70;;;5.90;99.90;;;;;;6272732;22;20243;-50
2021/12/11 10:10:22;;;;;;;12.23;9.10;;;5.80;99.90;;;;;;6273259;22;20163;-50
2021/12/11 10:12:55;;;;;;;8.45;7.63;;;5.90;99.90;;;;;;6283608;22;20531;-50
2021/12/11 10:15:38;;;;;;;7.05;6.35;;;5.70;99.90;;;;;;6273407;22;20223;-50
2021/12/11 10:18:13;;;;;;;7.72;7.03;;;6.20;99.90;;;;;;6281773;22;20135;-47
2021/12/11 10:20:58;;;;;;;6.80;6.18;;;6.00;99.90;;;;;;6282939;22;20495;-49
2021/12/11 10:23:29;;;;;;;7.30;6.60;;;5.90;99.90;;;;;;6283609;22;20170;-48
2021/12/11 10:25:58;;;;;;;6.68;5.97;;;6.10;99.90;;;;;;6283387;22;20538;-49
2021/12/11 10:28:27;;;;;;;6.30;5.70;;;5.90;99.90;;;;;;6272521;22;20541;-48
2021/12/11 10:31:02;;;;;;;6.43;5.88;;;6.30;99.90;;;;;;6283705;22;20246;-48
2021/12/11 10:33:31;;;;;;;6.40;5.53;;;6.50;99.90;;;;;;6283180;22;20250;-49
2021/12/11 10:36:01;;;;;;;15.23;13.60;;;6.50;99.90;;;;;;6282247;22;20307;-49
2021/12/11 10:38:27;;;;;;;7.45;6.65;;;6.30;99.90;;;;;;6272357;22;20234;-48
2021/12/11 10:40:58;;;;;;;7.18;6.57;;;6.20;99.90;;;;;;6273227;22;20182;-48
2021/12/11 10:43:30;;;;;;;6.63;5.63;;;6.30;99.90;;;;;;6283155;22;20229;-48
2021/12/11 10:46:00;;;;;;;6.50;5.90;;;6.10;99.90;;;;;;6272862;22;20187;-49
2021/12/11 10:48:30;;;;;;;6.47;5.88;;;6.30;99.90;;;;;;6283164;22;20206;-49
2021/12/11 10:50:58;;;;;;;6.78;6.10;;;6.70;99.90;;;;;;6282661;22;20179;-49
2021/12/11 10:53:27;;;;;;;6.18;5.68;;;6.60;99.90;;;;;;6272825;22;20190;-48
2021/12/11 10:55:54;;;;;;;6.28;5.70;;;6.30;99.90;;;;;;6271888;22;20179;-49
2021/12/11 10:58:25;;;;;;;6.43;5.78;;;6.60;99.90;;;;;;6282527;22;20231;-49
2021/12/11 11:00:56;;;;;;;6.57;5.97;;;6.40;99.90;;;;;;6272767;22;20547;-49
2021/12/11 11:03:24;;;;;;;6.10;5.50;;;6.30;99.90;;;;;;6283398;22;20171;-49
2021/12/11 11:05:50;;;;;;;7.63;5.50;;;6.00;99.90;;;;;;6271220;22;20195;-49
2021/12/11 11:08:16;;;;;;;8.40;7.50;;;6.50;99.90;;;;;;6272557;22;20165;-49
2021/12/11 11:10:54;;;;;;;7.60;6.80;;;6.40;99.90;;;;;;6271725;22;20215;-49
2021/12/11 11:13:21;;;;;;;7.22;6.53;;;6.50;99.90;;;;;;6272930;22;20187;-50
2021/12/11 11:15:48;;;;;;;6.30;5.70;;;6.60;99.90;;;;;;6271636;22;20263;-49
2021/12/11 11:18:17;;;;;;;6.50;5.55;;;6.90;99.90;;;;;;6283231;22;20149;-50
2021/12/11 11:20:53;;;;;;;6.57;5.88;;;6.50;99.90;;;;;;6272344;22;20156;-49
2021/12/11 11:23:19;;;;;;;5.80;5.30;;;6.70;99.90;;;;;;6272467;22;20175;-48
2021/12/11 11:25:48;;;;;;;5.53;5.03;;;6.80;99.90;;;;;;6282847;22;20588;-49
2021/12/11 11:28:17;;;;;;;6.25;5.65;;;6.90;99.90;;;;;;6282344;22;20691;-49
2021/12/11 11:30:48;;;;;;;7.47;6.63;;;6.40;99.90;;;;;;6281525;22;20175;-49
2021/12/11 11:33:15;;;;;;;6.47;5.88;;;6.30;99.90;;;;;;6272377;22;20190;-50
2021/12/11 11:35:43;;;;;;;13.98;10.70;;;6.80;99.90;;;;;;6272725;22;20271;-50
2021/12/11 11:38:14;;;;;;;6.05;5.55;;;6.40;99.90;;;;;;6271987;22;20161;-50
2021/12/11 11:40:44;;;;;;;5.90;5.30;;;6.60;99.90;;;;;;6282417;22;20494;-50
2021/12/11 11:43:11;;;;;;;6.30;5.57;;;6.30;99.90;;;;;;6282980;22;20174;-50
2021/12/11 11:45:38;;;;;;;6.47;5.20;;;6.70;99.90;;;;;;6282798;22;20477;-50
2021/12/11 11:48:06;;;;;;;6.38;5.75;;;6.40;99.90;;;;;;6272683;22;20164;-49
2021/12/11 11:50:42;;;;;;;6.85;6.10;;;6.40;99.90;;;;;;6282770;22;20171;-50
2021/12/11 11:53:10;;;;;;;6.35;5.68;;;6.30;99.90;;;;;;6282381;22;20261;-50
2021/12/11 11:55:44;;;;;;;6.57;5.97;;;6.50;99.90;;;;;;6282140;22;20748;-48
2021/12/11 11:58:10;;;;;;;7.35;6.40;;;6.30;99.90;;;;;;6280330;22;20559;-49
2021/12/11 12:00:48;;;;;;;6.85;5.97;;;6.50;99.90;;;;;;6272575;22;20225;-50
2021/12/11 12:03:17;;;;;;;5.82;5.32;;;6.40;99.90;;;;;;6272444;22;20625;-50
2021/12/11 12:05:47;;;;;;;6.88;5.75;;;6.40;99.90;;;;;;6282424;22;20162;-50
2021/12/11 12:08:15;;;;;;;5.97;5.30;;;6.50;99.90;;;;;;6271505;22;20181;-50
2021/12/11 12:10:43;;;;;;;5.70;5.20;;;6.30;99.90;;;;;;6272168;22;20187;-49
2021/12/11 12:13:10;;;;;;;5.90;5.30;;;6.20;99.90;;;;;;6282818;22;20170;-49
2021/12/11 12:15:41;;;;;;;7.15;6.45;;;5.50;99.90;;;;;;6271824;22;20187;-50
2021/12/11 12:18:07;;;;;;;7.38;6.68;;;6.30;99.90;;;;;;6283099;22;20219;-50
2021/12/11 12:20:34;;;;;;;6.82;5.22;;;6.00;99.90;;;;;;6274323;22;20501;-49
2021/12/11 12:23:01;;;;;;;10.25;6.30;;;5.50;99.90;;;;;;6274546;22;20277;-50
2021/12/11 12:25:28;;;;;;;6.28;5.65;;;6.10;99.90;;;;;;6284967;22;20174;-49
2021/12/11 12:27:54;;;;;;;5.75;5.05;;;5.60;99.90;;;;;;6274559;22;20160;-50
2021/12/11 12:30:20;;;;;;;4.60;4.20;;;6.30;99.90;;;;;;6274656;22;20165;-50
2021/12/11 12:32:47;;;;;;;5.97;5.37;;;6.00;99.90;;;;;;6274609;22;20179;-50
2021/12/11 12:35:15;;;;;;;6.20;5.22;;;6.30;99.90;;;;;;6273723;22;20514;-49
2021/12/11 12:37:43;;;;;;;6.30;5.70;;;6.20;99.90;;;;;;6284541;22;20148;-50
2021/12/11 12:40:14;;;;;;;7.75;5.93;;;6.20;99.90;;;;;;6273824;22;20497;-50
2021/12/11 12:42:54;;;;;;;5.28;4.78;;;6.30;99.90;;;;;;6284894;22;20605;-49
2021/12/11 12:45:23;;;;;;;7.18;5.45;;;6.20;99.90;;;;;;6274554;22;20158;-48
2021/12/11 12:47:56;;;;;;;5.97;5.22;;;6.20;99.90;;;;;;6284498;22;20227;-51
2021/12/11 12:50:35;;;;;;;5.85;5.35;;;6.50;99.90;;;;;;6283845;22;20215;-48
2021/12/11 12:53:01;;;;;;;5.28;4.78;;;6.30;99.90;;;;;;6272640;22;20189;-48
2021/12/11 12:55:32;;;;;;;5.93;5.30;;;6.60;99.90;;;;;;6283928;22;20266;-48
2021/12/11 12:58:01;;;;;;;6.28;5.28;;;6.40;99.90;;;;;;6283567;22;20867;-49
2021/12/11 13:00:30;;;;;;;6.35;5.45;;;6.40;99.90;;;;;;6284244;22;20157;-50
2021/12/11 13:03:02;;;;;;;5.55;5.05;;;6.40;99.90;;;;;;6273510;22;20495;-49
2021/12/11 13:05:34;;;;;;;5.40;4.90;;;6.50;99.90;;;;;;6284508;22;20551;-50
2021/12/11 13:08:12;;;;;;;5.90;4.93;;;6.40;99.90;;;;;;6283542;22;20199;-50
2021/12/11 13:10:46;;;;;;;6.50;5.60;;;6.50;99.90;;;;;;6273206;22;20584;-50
2021/12/11 13:13:14;;;;;;;5.00;4.60;;;6.70;99.90;;;;;;6284454;22;20653;-47
2021/12/11 13:15:45;;;;;;;6.25;5.28;;;6.60;99.90;;;;;;6283623;22;20189;-49
2021/12/11 13:18:15;;;;;;;5.28;4.68;;;6.40;99.90;;;;;;6284178;22;20140;-49
2021/12/11 13:20:55;;;;;;;6.35;5.75;;;6.60;99.90;;;;;;6272939;22;20487;-48
2021/12/11 13:23:21;;;;;;;6.78;6.10;;;6.70;99.90;;;;;;6284204;22;20233;-49
2021/12/11 13:25:54;;;;;;;6.22;5.47;;;6.60;99.90;;;;;;6283231;22;20167;-48
2021/12/11 13:28:22;;;;;;;6.65;5.50;;;6.70;99.90;;;;;;6283643;22;20152;-48